createdAt,value
2018-01-18T00:00:06.773Z,98.10
2018-01-18T00:02:34.336Z,97.90
2018-01-18T00:05:01.868Z,97.90
2018-01-18T00:07:29.398Z,97.90
2018-01-18T00:09:57.040Z,97.90
2018-01-18T00:12:24.783Z,97.70
2018-01-18T00:14:52.314Z,97.70
2018-01-18T00:17:20.218Z,97.70
2018-01-18T00:19:47.755Z,98.00
2018-01-18T00:22:15.535Z,98.00
2018-01-18T00:24:43.085Z,97.80
2018-01-18T00:27:10.611Z,97.70
2018-01-18T00:29:38.139Z,97.60
2018-01-18T00:32:05.698Z,98.10
2018-01-18T00:34:33.232Z,99.10
2018-01-18T00:37:00.757Z,99.90
2018-01-18T00:39:28.915Z,99.90
2018-01-18T00:41:56.465Z,99.90
2018-01-18T00:44:24.023Z,99.90
2018-01-18T00:46:51.578Z,99.90
2018-01-18T00:49:19.871Z,99.90
2018-01-18T00:51:47.403Z,99.90
2018-01-18T00:54:16.496Z,99.90
2018-01-18T00:56:44.023Z,99.90
2018-01-18T00:59:11.568Z,99.90
2018-01-18T01:01:39.556Z,99.90
2018-01-18T01:04:07.111Z,99.90
2018-01-18T01:06:35.406Z,99.90
2018-01-18T01:09:03.015Z,99.90
2018-01-18T01:11:30.564Z,99.90
2018-01-18T01:13:58.120Z,99.90
2018-01-18T01:16:26.443Z,99.90
2018-01-18T01:18:54.471Z,99.90
2018-01-18T01:21:22.031Z,99.90
2018-01-18T01:23:50.994Z,99.90
2018-01-18T01:26:18.550Z,99.90
2018-01-18T01:28:46.089Z,99.90
2018-01-18T01:31:24.320Z,99.90
2018-01-18T01:36:24.710Z,99.90
2018-01-18T01:38:52.924Z,99.90
2018-01-18T01:41:20.467Z,99.90
2018-01-18T01:43:47.996Z,99.90
2018-01-18T01:46:16.463Z,99.90
2018-01-18T01:48:43.991Z,99.90
2018-01-18T01:51:11.519Z,99.90
2018-01-18T01:53:39.234Z,99.60
2018-01-18T01:56:06.758Z,99.20
2018-01-18T01:58:34.288Z,99.10
2018-01-18T02:01:01.900Z,98.80
2018-01-18T02:03:29.432Z,98.60
2018-01-18T02:05:56.961Z,98.30
2018-01-18T02:08:25.287Z,97.90
2018-01-18T02:10:52.815Z,97.90
2018-01-18T02:13:20.353Z,98.00
2018-01-18T02:15:47.917Z,97.50
2018-01-18T02:18:15.535Z,98.00
2018-01-18T02:20:43.647Z,98.60
2018-01-18T02:23:11.575Z,98.90
2018-01-18T02:25:39.107Z,98.70
2018-01-18T02:28:06.634Z,97.90
2018-01-18T02:30:34.228Z,97.70
2018-01-18T02:33:01.760Z,97.50
2018-01-18T02:35:29.304Z,97.60
2018-01-18T02:37:56.900Z,97.40
2018-01-18T02:40:24.433Z,97.50
2018-01-18T02:42:51.961Z,97.50
2018-01-18T02:45:20.226Z,97.50
2018-01-18T02:47:47.755Z,96.90
2018-01-18T02:50:16.472Z,97.10
2018-01-18T02:52:44.023Z,96.90
2018-01-18T02:55:11.547Z,96.70
2018-01-18T02:57:39.083Z,96.50
2018-01-18T03:00:06.658Z,96.40
2018-01-18T03:02:34.188Z,96.20
2018-01-18T03:05:01.728Z,96.00
2018-01-18T03:07:29.696Z,96.00
2018-01-18T03:09:57.234Z,95.80
2018-01-18T03:12:24.771Z,95.60
2018-01-18T03:14:52.336Z,95.80
2018-01-18T03:17:19.863Z,95.80
2018-01-18T03:19:47.390Z,95.50
2018-01-18T03:22:17.186Z,95.70
2018-01-18T03:24:44.714Z,95.50
2018-01-18T03:27:13.937Z,95.10
2018-01-18T03:29:42.304Z,95.20
2018-01-18T03:32:09.836Z,95.20
2018-01-18T03:34:37.360Z,95.20
2018-01-18T03:37:04.915Z,95.30
2018-01-18T03:39:32.459Z,95.40
2018-01-18T03:41:59.991Z,95.50
2018-01-18T03:44:28.312Z,95.80
2018-01-18T03:46:55.842Z,95.80
2018-01-18T03:49:23.379Z,95.60
2018-01-18T03:51:51.900Z,95.90
2018-01-18T03:54:19.422Z,96.00
2018-01-18T03:56:47.718Z,96.60
2018-01-18T03:59:16.463Z,96.60
2018-01-18T04:01:43.982Z,96.60
2018-01-18T04:04:11.518Z,96.70
2018-01-18T04:06:39.087Z,96.70
2018-01-18T04:09:06.619Z,96.70
2018-01-18T04:11:35.246Z,96.40
2018-01-18T04:14:03.360Z,96.20
2018-01-18T04:16:30.890Z,96.40
2018-01-18T04:18:58.427Z,96.40
2018-01-18T04:21:26.146Z,96.40
2018-01-18T04:23:54.093Z,96.70
2018-01-18T04:26:21.636Z,96.70
2018-01-18T04:28:49.188Z,96.70
2018-01-18T04:31:16.727Z,96.50
2018-01-18T04:33:44.251Z,96.00
2018-01-18T04:36:12.302Z,96.10
2018-01-18T04:38:39.830Z,95.80
2018-01-18T04:41:08.124Z,95.50
2018-01-18T04:43:35.727Z,95.50
2018-01-18T04:46:03.246Z,95.60
2018-01-18T04:48:30.771Z,95.60
2018-01-18T04:50:58.358Z,95.50
2018-01-18T04:53:25.898Z,95.20
2018-01-18T04:55:53.496Z,95.10
2018-01-18T04:58:21.571Z,95.00
2018-01-18T05:00:49.095Z,95.20
2018-01-18T05:03:16.619Z,94.80
2018-01-18T05:05:44.179Z,94.70
2018-01-18T05:08:11.707Z,94.70
2018-01-18T05:10:39.240Z,94.80
2018-01-18T05:13:06.794Z,94.90
2018-01-18T05:15:34.324Z,95.20
2018-01-18T05:18:01.853Z,95.10
2018-01-18T05:20:29.919Z,94.90
2018-01-18T05:22:57.507Z,95.00
2018-01-18T05:25:25.694Z,95.00
2018-01-18T05:27:53.255Z,94.80
2018-01-18T05:30:21.542Z,94.70
2018-01-18T05:32:49.186Z,94.70
2018-01-18T05:35:16.791Z,95.00
2018-01-18T05:37:44.319Z,95.10
2018-01-18T05:40:11.847Z,95.50
2018-01-18T05:42:40.107Z,95.50
2018-01-18T05:45:07.626Z,95.80
2018-01-18T05:47:35.152Z,96.10
2018-01-18T05:50:02.767Z,96.70
2018-01-18T05:52:30.294Z,97.00
2018-01-18T05:54:58.587Z,97.30
2018-01-18T05:57:26.139Z,97.30
2018-01-18T05:59:54.427Z,97.10
2018-01-18T06:02:21.964Z,97.10
2018-01-18T06:04:50.874Z,97.20
2018-01-18T06:07:18.407Z,97.10
2018-01-18T06:09:46.743Z,97.50
2018-01-18T06:15:17.516Z,97.00
2018-01-18T06:17:45.060Z,97.30
2018-01-18T06:20:12.591Z,97.00
2018-01-18T06:22:41.243Z,97.20
2018-01-18T06:25:08.780Z,97.20
2018-01-18T06:27:36.723Z,97.30
2018-01-18T06:30:04.292Z,97.00
2018-01-18T06:32:31.875Z,96.90
2018-01-18T06:34:59.403Z,96.80
2018-01-18T06:37:26.965Z,96.90
2018-01-18T06:39:54.808Z,96.80
2018-01-18T06:42:22.335Z,96.60
2018-01-18T06:44:50.509Z,96.30
2018-01-18T06:47:18.047Z,96.10
2018-01-18T06:49:45.576Z,96.00
2018-01-18T06:52:24.759Z,96.00
2018-01-18T06:55:14.172Z,95.70
2018-01-18T06:57:42.511Z,95.90
2018-01-18T07:00:10.044Z,95.90
2018-01-18T07:02:37.574Z,95.80
2018-01-18T07:05:05.588Z,95.70
2018-01-18T07:07:33.123Z,95.60
2018-01-18T07:10:00.708Z,95.80
2018-01-18T07:12:29.159Z,95.60
2018-01-18T07:14:56.854Z,95.50
2018-01-18T07:17:24.481Z,95.40
2018-01-18T07:19:52.039Z,95.00
2018-01-18T07:22:19.562Z,95.10
2018-01-18T07:24:47.100Z,94.90
2018-01-18T07:27:15.803Z,94.50
2018-01-18T07:29:43.757Z,94.30
2018-01-18T07:32:11.291Z,94.40
2018-01-18T07:34:38.871Z,94.40
2018-01-18T07:37:06.395Z,94.50
2018-01-18T07:39:34.022Z,94.10
2018-01-18T07:42:01.583Z,94.00
2018-01-18T07:44:29.116Z,93.80
2018-01-18T07:46:56.652Z,93.70
2018-01-18T07:49:24.708Z,93.50
2018-01-18T07:51:52.335Z,93.30
2018-01-18T07:54:19.891Z,92.80
2018-01-18T07:59:46.387Z,92.70
2018-01-18T08:02:25.233Z,92.50
2018-01-18T08:15:22.861Z,92.60
2018-01-18T08:17:50.399Z,91.80
2018-01-18T08:20:17.931Z,91.40
2018-01-18T08:22:45.496Z,90.90
2018-01-18T08:25:26.672Z,91.20
2018-01-18T08:30:33.338Z,90.30
2018-01-18T08:33:00.887Z,90.70
2018-01-18T08:35:28.417Z,90.50
2018-01-18T08:37:55.971Z,90.80
2018-01-18T08:40:23.570Z,90.90
2018-01-18T08:42:51.095Z,91.70
2018-01-18T08:45:18.828Z,91.50
2018-01-18T08:47:46.600Z,92.20
2018-01-18T08:50:25.538Z,92.70
2018-01-18T09:01:28.107Z,93.00
2018-01-18T09:03:55.639Z,93.70
2018-01-18T09:06:23.163Z,93.70
2018-01-18T09:08:51.212Z,93.60
2018-01-18T09:11:18.750Z,93.20
2018-01-18T09:13:46.288Z,92.40
2018-01-18T09:16:26.399Z,92.10
2018-01-18T09:21:35.960Z,91.50
2018-01-18T09:24:03.499Z,91.40
2018-01-18T09:26:31.791Z,90.70
2018-01-18T09:28:59.930Z,90.60
2018-01-18T09:31:27.739Z,90.20
2018-01-18T09:33:55.272Z,90.00
2018-01-18T09:36:22.879Z,90.00
2018-01-18T09:38:50.435Z,90.00
2018-01-18T09:41:18.738Z,88.50
2018-01-18T09:43:46.287Z,88.50
2018-01-18T09:46:25.725Z,88.60
2018-01-18T09:57:28.718Z,89.00
2018-01-18T09:59:56.266Z,89.50
2018-01-18T10:02:23.804Z,89.20
2018-01-18T10:04:51.360Z,88.40
2018-01-18T10:07:18.893Z,89.10
2018-01-18T10:09:46.439Z,88.60
2018-01-18T10:12:15.545Z,87.90
2018-01-18T10:14:43.091Z,89.40
2018-01-18T10:17:10.666Z,88.20
2018-01-18T10:19:39.543Z,88.50
2018-01-18T10:22:07.095Z,87.80
2018-01-18T10:24:34.647Z,88.30
2018-01-18T10:27:02.209Z,87.40
2018-01-18T10:29:29.740Z,88.00
2018-01-18T10:31:57.778Z,87.70
2018-01-18T10:34:39.419Z,86.70
2018-01-18T10:37:06.992Z,86.70
2018-01-18T10:39:34.540Z,86.40
2018-01-18T10:42:02.864Z,87.50
2018-01-18T10:44:30.412Z,86.70
2018-01-18T10:46:57.952Z,86.70
2018-01-18T10:49:25.519Z,86.80
2018-01-18T10:51:53.092Z,86.90
2018-01-18T10:54:20.631Z,86.80
2018-01-18T10:56:48.182Z,85.60
2018-01-18T10:59:16.814Z,84.60
2018-01-18T11:01:44.348Z,85.30
2018-01-18T11:04:11.964Z,84.80
2018-01-18T11:06:39.513Z,84.40
2018-01-18T11:09:07.804Z,84.50
2018-01-18T11:11:35.576Z,84.40
2018-01-18T11:14:03.116Z,83.70
2018-01-18T11:16:30.643Z,84.20
2018-01-18T11:18:58.207Z,83.50
2018-01-18T11:21:25.744Z,82.80
2018-01-18T11:23:53.284Z,83.40
2018-01-18T11:26:21.319Z,83.60
2018-01-18T11:28:48.852Z,84.00
2018-01-18T11:31:16.687Z,82.80
2018-01-18T11:33:44.503Z,82.20
2018-01-18T11:36:12.103Z,83.40
2018-01-18T11:38:41.092Z,81.80
2018-01-18T11:41:10.123Z,81.80
2018-01-18T11:43:37.780Z,82.30
2018-01-18T11:46:05.573Z,81.90
2018-01-18T11:48:33.530Z,82.80
2018-01-18T11:51:06.157Z,83.80
2018-01-18T11:53:34.576Z,83.70
2018-01-18T11:56:04.863Z,81.50
2018-01-18T11:58:40.974Z,80.70
2018-01-18T12:01:08.971Z,82.10
2018-01-18T12:03:37.511Z,82.00
2018-01-18T12:06:06.185Z,81.90
2018-01-18T12:08:34.773Z,82.40
2018-01-18T12:11:02.390Z,82.00
2018-01-18T12:13:33.145Z,81.60
2018-01-18T12:16:01.039Z,81.20
2018-01-18T12:18:28.884Z,83.20
2018-01-18T12:20:56.689Z,83.10
2018-01-18T12:23:24.932Z,83.10
2018-01-18T12:25:53.216Z,83.50
2018-01-18T12:28:21.804Z,83.80
2018-01-18T12:30:50.968Z,82.30
2018-01-18T12:33:18.674Z,82.20
2018-01-18T12:35:47.757Z,82.90
2018-01-18T12:38:15.635Z,83.00
2018-01-18T12:40:43.175Z,82.60
2018-01-18T12:43:11.549Z,82.20
2018-01-18T12:45:39.144Z,82.20
2018-01-18T12:48:06.727Z,81.30
2018-01-18T12:50:34.663Z,82.20
2018-01-18T12:53:02.215Z,82.10
2018-01-18T12:55:29.828Z,83.10
2018-01-18T12:57:58.207Z,82.60
2018-01-18T13:00:25.998Z,82.50
2018-01-18T13:02:53.571Z,82.30
2018-01-18T13:05:21.257Z,83.10
2018-01-18T13:07:49.412Z,83.90
2018-01-18T13:10:16.979Z,83.40
2018-01-18T13:12:44.934Z,83.90
2018-01-18T13:15:13.196Z,83.40
2018-01-18T13:17:42.147Z,82.90
2018-01-18T13:20:11.755Z,83.10
2018-01-18T13:22:39.560Z,83.60
2018-01-18T13:25:07.196Z,82.60
2018-01-18T13:27:35.481Z,83.40
2018-01-18T13:30:03.186Z,83.70
2018-01-18T13:32:30.836Z,83.70
2018-01-18T13:34:59.923Z,83.20
2018-01-18T13:37:28.243Z,83.30
2018-01-18T13:39:55.785Z,83.20
2018-01-18T13:42:23.398Z,82.90
2018-01-18T13:44:51.016Z,83.40
2018-01-18T13:47:18.621Z,83.40
2018-01-18T13:49:46.257Z,82.50
2018-01-18T13:52:25.539Z,82.30
2018-01-18T13:57:38.276Z,82.40
2018-01-18T14:00:05.823Z,82.80
2018-01-18T14:02:33.441Z,82.50
2018-01-18T14:05:01.096Z,82.80
2018-01-18T14:07:28.718Z,82.90
2018-01-18T14:09:56.280Z,83.10
2018-01-18T14:12:23.868Z,83.20
2018-01-18T14:14:51.668Z,83.00
2018-01-18T14:17:19.407Z,82.90
2018-01-18T14:19:47.015Z,82.30
2018-01-18T14:22:26.627Z,83.40
2018-01-18T14:33:39.742Z,83.50
2018-01-18T14:36:07.337Z,83.00
2018-01-18T14:38:37.049Z,82.10
2018-01-18T14:41:10.608Z,82.80
2018-01-18T14:43:38.863Z,82.70
2018-01-18T14:46:08.153Z,82.60
2018-01-18T14:48:35.925Z,82.00
2018-01-18T14:51:03.630Z,82.30
2018-01-18T14:53:31.248Z,82.10
2018-01-18T14:55:58.883Z,81.90
2018-01-18T14:58:27.587Z,82.50
2018-01-18T15:00:55.720Z,82.10
2018-01-18T15:03:24.307Z,81.80
2018-01-18T15:05:52.899Z,82.20
2018-01-18T15:08:22.621Z,81.90
2018-01-18T15:10:50.225Z,82.10
2018-01-18T15:13:17.843Z,81.80
2018-01-18T15:15:45.439Z,82.30
2018-01-18T15:18:24.484Z,82.90
2018-01-18T15:23:34.578Z,82.10
2018-01-18T15:26:02.353Z,82.00
2018-01-18T15:28:33.073Z,82.50
2018-01-18T15:31:01.696Z,82.00
2018-01-18T15:33:39.144Z,81.30
2018-01-18T15:36:10.964Z,81.20
2018-01-18T15:38:38.952Z,81.80
2018-01-18T15:41:14.052Z,81.80
2018-01-18T15:44:02.138Z,82.00
2018-01-18T15:46:39.603Z,82.30
2018-01-18T15:49:11.371Z,82.40
2018-01-18T15:51:45.965Z,82.00
2018-01-18T15:54:40.087Z,82.30
2018-01-18T15:57:10.979Z,82.70
2018-01-18T15:59:40.125Z,82.70
2018-01-18T16:02:09.978Z,83.00
2018-01-18T16:04:37.781Z,82.70
2018-01-18T16:07:05.955Z,82.80
2018-01-18T16:09:34.433Z,82.50
2018-01-18T16:12:03.032Z,82.30
2018-01-18T16:14:30.804Z,82.40
2018-01-18T16:16:59.922Z,82.40
2018-01-18T16:19:29.747Z,83.10
2018-01-18T16:21:58.659Z,83.10
2018-01-18T16:24:28.438Z,83.00
2018-01-18T16:26:57.169Z,83.00
2018-01-18T16:29:25.673Z,83.50
2018-01-18T16:31:54.058Z,84.10
2018-01-18T16:34:25.886Z,83.70
2018-01-18T16:36:54.128Z,83.90
2018-01-18T16:39:21.755Z,85.60
2018-01-18T16:44:29.585Z,89.90
2018-01-18T16:47:06.639Z,91.30
2018-01-18T16:49:34.242Z,92.00
2018-01-18T16:52:02.662Z,92.80
2018-01-18T16:54:33.547Z,94.00
2018-01-18T16:57:01.946Z,93.10
2018-01-18T16:59:30.343Z,93.00
2018-01-18T17:01:58.363Z,93.00
2018-01-18T17:04:25.899Z,92.60
2018-01-18T17:06:53.448Z,91.40
2018-01-18T17:09:21.047Z,91.00
2018-01-18T17:11:48.571Z,90.80
2018-01-18T17:14:16.492Z,90.50
2018-01-18T17:16:44.052Z,90.50
2018-01-18T17:19:11.579Z,90.50
2018-01-18T17:21:39.108Z,89.20
2018-01-18T17:24:07.208Z,90.00
2018-01-18T17:26:34.741Z,89.80
2018-01-18T17:29:02.387Z,89.10
2018-01-18T17:31:29.952Z,88.60
2018-01-18T17:33:57.484Z,88.90
2018-01-18T17:36:25.783Z,87.80
2018-01-18T17:38:53.383Z,87.80
2018-01-18T17:41:21.299Z,87.80
2018-01-18T17:43:48.900Z,87.90
2018-01-18T17:46:18.020Z,88.00
2018-01-18T17:48:45.587Z,88.00
2018-01-18T17:51:26.219Z,88.40
2018-01-18T18:01:49.262Z,88.70
2018-01-18T18:04:16.790Z,91.90
2018-01-18T18:06:44.330Z,92.90
2018-01-18T18:09:11.895Z,93.50
2018-01-18T18:11:39.419Z,94.20
2018-01-18T18:14:06.951Z,94.70
2018-01-18T18:16:34.644Z,94.80
2018-01-18T18:19:02.169Z,95.20
2018-01-18T18:21:29.700Z,95.80
2018-01-18T18:23:57.532Z,95.70
2018-01-18T18:26:25.831Z,96.50
2018-01-18T18:28:53.367Z,96.40
2018-01-18T18:31:21.687Z,97.40
2018-01-18T18:33:49.258Z,97.20
2018-01-18T18:36:16.876Z,97.70
2018-01-18T18:38:45.239Z,98.00
2018-01-18T18:41:13.729Z,98.00
2018-01-18T18:43:42.031Z,98.70
2018-01-18T18:46:09.670Z,98.60
2018-01-18T18:48:37.416Z,98.90
2018-01-18T18:51:04.998Z,98.80
2018-01-18T18:53:34.176Z,99.10
2018-01-18T18:56:01.792Z,99.00
2018-01-18T18:58:29.398Z,99.60
2018-01-18T19:00:57.009Z,99.80
2018-01-18T19:03:25.877Z,99.90
2018-01-18T19:05:54.227Z,99.90
2018-01-18T19:08:21.851Z,99.90
2018-01-18T19:10:50.362Z,99.80
2018-01-18T19:13:17.934Z,99.90
2018-01-18T19:15:46.312Z,99.90
2018-01-18T19:18:25.268Z,99.90
2018-01-18T19:23:54.705Z,99.90
2018-01-18T19:26:22.419Z,99.90
2018-01-18T19:28:49.959Z,99.90
2018-01-18T19:31:17.611Z,99.90
2018-01-18T19:33:46.967Z,99.90
2018-01-18T19:36:18.399Z,99.90
2018-01-18T19:38:46.013Z,99.90
2018-01-18T19:41:13.747Z,99.90
2018-01-18T19:43:41.466Z,99.90
2018-01-18T19:46:10.445Z,99.90
2018-01-18T19:48:40.390Z,99.90
2018-01-18T19:51:08.054Z,99.90
2018-01-18T19:53:35.614Z,99.90
2018-01-18T19:56:03.201Z,99.90
2018-01-18T19:58:30.803Z,99.70
2018-01-18T20:00:58.430Z,99.80
2018-01-18T20:03:26.778Z,98.70
2018-01-18T20:05:54.759Z,98.70
2018-01-18T20:08:22.295Z,98.40
2018-01-18T20:10:49.880Z,98.40
2018-01-18T20:13:18.276Z,98.90
2018-01-18T20:15:45.809Z,99.10
2018-01-18T20:18:32.356Z,99.50
2018-01-18T20:24:13.020Z,99.80
2018-01-18T20:26:40.603Z,99.90
2018-01-18T20:29:08.444Z,99.90
2018-01-18T20:31:37.702Z,99.90
2018-01-18T20:34:05.388Z,99.90
2018-01-18T20:36:33.886Z,99.90
2018-01-18T20:39:04.189Z,99.90
2018-01-18T20:41:31.831Z,99.90
2018-01-18T20:44:00.448Z,99.90
2018-01-18T20:46:29.558Z,99.70
2018-01-18T20:48:57.893Z,99.90
2018-01-18T20:51:25.540Z,99.90
2018-01-18T20:53:53.165Z,99.90
2018-01-18T20:56:21.662Z,99.80
2018-01-18T20:58:49.366Z,99.70
2018-01-18T21:01:17.012Z,99.90
2018-01-18T21:03:44.556Z,99.90
2018-01-18T21:06:12.143Z,99.90
2018-01-18T21:08:40.031Z,99.80
2018-01-18T21:11:07.658Z,99.90
2018-01-18T21:13:36.176Z,99.90
2018-01-18T21:16:03.810Z,99.70
2018-01-18T21:18:31.339Z,99.60
2018-01-18T21:20:58.917Z,99.50
2018-01-18T21:23:26.562Z,99.30
2018-01-18T21:25:54.125Z,99.20
2018-01-18T21:28:21.720Z,99.20
2018-01-18T21:30:50.016Z,99.30
2018-01-18T21:33:17.612Z,99.20
2018-01-18T21:35:45.148Z,99.30
2018-01-18T21:38:13.620Z,99.40
2018-01-18T21:40:41.147Z,99.50
2018-01-18T21:43:08.753Z,99.20
2018-01-18T21:45:36.422Z,99.10
2018-01-18T21:51:01.232Z,98.70
2018-01-18T21:53:28.971Z,98.70
2018-01-18T21:55:56.705Z,98.30
2018-01-18T21:58:24.342Z,98.30
2018-01-18T22:00:51.931Z,98.30
2018-01-18T22:03:19.574Z,97.90
2018-01-18T22:05:47.238Z,97.50
2018-01-18T22:08:15.534Z,97.30
2018-01-18T22:14:00.843Z,96.80
2018-01-18T22:16:28.534Z,96.20
2018-01-18T22:18:56.989Z,96.40
2018-01-18T22:21:25.000Z,95.50
2018-01-18T22:23:52.601Z,95.90
2018-01-18T22:26:20.667Z,96.00
2018-01-18T22:28:48.328Z,96.20
2018-01-18T22:31:17.277Z,96.10
2018-01-18T22:33:44.921Z,95.90
2018-01-18T22:36:13.286Z,95.80
2018-01-18T22:38:41.083Z,95.90
2018-01-18T22:41:08.962Z,96.10
2018-01-18T22:43:36.509Z,95.70
2018-01-18T22:46:04.116Z,96.10
2018-01-18T22:48:32.420Z,96.60
2018-01-18T22:50:59.955Z,96.50
2018-01-18T22:53:29.211Z,96.80
2018-01-18T22:55:56.740Z,96.70
2018-01-18T22:58:24.274Z,97.00
2018-01-18T23:00:51.845Z,97.20
2018-01-18T23:03:19.383Z,97.40
2018-01-18T23:05:46.913Z,97.30
2018-01-18T23:08:25.236Z,97.40
2018-01-18T23:14:30.685Z,97.70
2018-01-18T23:16:58.224Z,98.00
2018-01-18T23:19:25.760Z,98.00
2018-01-18T23:21:53.307Z,98.10
2018-01-18T23:24:21.607Z,98.00
2018-01-18T23:26:49.152Z,98.00
2018-01-18T23:29:17.475Z,98.40
2018-01-18T23:31:44.996Z,98.30
2018-01-18T23:34:14.206Z,98.70
2018-01-18T23:36:42.099Z,98.70
2018-01-18T23:39:09.632Z,98.80
2018-01-18T23:41:37.159Z,98.60
2018-01-18T23:44:04.747Z,98.80
2018-01-18T23:46:32.275Z,98.70
2018-01-18T23:48:59.874Z,98.80
2018-01-18T23:51:27.491Z,98.60
2018-01-18T23:53:55.695Z,98.60
2018-01-18T23:56:23.223Z,98.50
2018-01-18T23:58:51.271Z,98.70
